Time;durP1;ratioP1;P1;durP2;ratioP2;P2;SDS_P1;SDS_P2;PMS_P1;PMS_P2;Temp;Humidity;BMP_temperature;BMP_pressure;BME280_temperature;BME280_humidity;BME280_pressure;Samples;Min_cycle;Max_cycle;Signal;HPM_P1;HPM_P2
2022/08/27 00:00:47;;;;;;;11.48;4.78;;;23.80;85.10;;;;;;5041967;28;20040;-64
2022/08/27 00:03:12;;;;;;;7.38;4.47;;;23.80;85.30;;;;;;5023502;28;20041;-64
2022/08/27 00:05:38;;;;;;;6.90;4.15;;;23.70;85.40;;;;;;5043979;28;20092;-64
2022/08/27 00:08:04;;;;;;;8.85;4.63;;;23.70;85.60;;;;;;5042741;28;20453;-65
2022/08/27 00:10:30;;;;;;;8.98;4.95;;;23.70;85.50;;;;;;5027066;28;20017;-64
2022/08/27 00:12:55;;;;;;;7.72;4.25;;;23.70;85.40;;;;;;5045039;28;20316;-64
2022/08/27 00:15:21;;;;;;;6.70;4.35;;;23.70;85.30;;;;;;5040923;28;20078;-64
2022/08/27 00:17:47;;;;;;;5.63;4.07;;;23.70;85.40;;;;;;5040259;28;20103;-64
2022/08/27 00:20:14;;;;;;;8.23;3.78;;;23.70;85.40;;;;;;5007165;28;20385;-64
2022/08/27 00:22:40;;;;;;;7.60;4.07;;;23.70;85.40;;;;;;5041114;28;20029;-64
2022/08/27 00:25:06;;;;;;;10.05;5.80;;;23.70;85.60;;;;;;5043052;28;20024;-64
2022/08/27 00:27:31;;;;;;;11.65;6.45;;;23.70;85.60;;;;;;5039051;28;20036;-64
2022/08/27 00:29:57;;;;;;;9.02;6.32;;;23.70;86.00;;;;;;5022348;28;20359;-64
2022/08/27 00:32:22;;;;;;;8.13;5.20;;;23.70;86.20;;;;;;5040621;28;20130;-64
2022/08/27 00:34:48;;;;;;;8.07;5.20;;;23.70;86.30;;;;;;5042779;28;20151;-64
2022/08/27 00:37:14;;;;;;;5.38;4.10;;;23.60;86.20;;;;;;5042191;28;20032;-64
2022/08/27 00:39:39;;;;;;;6.32;4.20;;;23.60;86.30;;;;;;5040852;28;20052;-64
2022/08/27 00:42:05;;;;;;;6.68;4.38;;;23.60;86.40;;;;;;5042534;28;20013;-66
2022/08/27 00:44:31;;;;;;;9.23;4.00;;;23.60;86.00;;;;;;5023576;28;20076;-64
2022/08/27 00:47:02;;;;;;;5.85;4.07;;;23.60;86.10;;;;;;5042482;28;20040;-65
2022/08/27 00:49:49;;;;;;;6.68;4.10;;;23.60;86.20;;;;;;5038926;28;20567;-64
2022/08/27 00:52:30;;;;;;;9.05;4.10;;;23.60;86.20;;;;;;5026949;28;20045;-64
2022/08/27 00:55:02;;;;;;;5.75;4.35;;;23.60;86.30;;;;;;5024620;28;20385;-64
2022/08/27 00:57:28;;;;;;;10.63;3.83;;;23.50;86.30;;;;;;5041579;28;20112;-64
2022/08/27 00:59:53;;;;;;;8.18;4.35;;;23.50;86.30;;;;;;5038526;28;20125;-64
2022/08/27 01:02:19;;;;;;;4.78;3.88;;;23.50;86.30;;;;;;5040791;28;20232;-64
2022/08/27 01:04:59;;;;;;;6.47;3.80;;;23.50;86.40;;;;;;5038726;28;20060;-64
2022/08/27 01:07:25;;;;;;;3.85;3.25;;;23.50;86.40;;;;;;5025197;28;20032;-64
2022/08/27 01:09:51;;;;;;;6.22;4.03;;;23.50;86.50;;;;;;5026954;28;20033;-64
2022/08/27 01:12:16;;;;;;;3.85;3.55;;;23.50;86.20;;;;;;5026793;28;20041;-64
2022/08/27 01:14:43;;;;;;;4.55;3.50;;;23.50;86.20;;;;;;5043005;28;20087;-64
2022/08/27 01:17:09;;;;;;;4.60;3.53;;;23.50;86.30;;;;;;5044203;28;20020;-64
2022/08/27 01:19:44;;;;;;;6.28;3.38;;;23.50;86.30;;;;;;5041854;28;20024;-64
2022/08/27 01:22:22;;;;;;;7.55;3.25;;;23.50;86.20;;;;;;5037437;28;20611;-64
2022/08/27 01:24:48;;;;;;;6.03;3.25;;;23.50;86.20;;;;;;5038265;28;20081;-64
2022/08/27 01:27:19;;;;;;;4.63;3.15;;;23.40;86.10;;;;;;5023150;28;20074;-64
2022/08/27 01:29:45;;;;;;;4.65;3.20;;;23.40;86.20;;;;;;5025997;28;20103;-65
2022/08/27 01:32:14;;;;;;;5.93;3.22;;;23.40;86.20;;;;;;5024763;28;20476;-64
2022/08/27 01:34:39;;;;;;;6.00;3.28;;;23.40;86.30;;;;;;5024842;28;20538;-64
2022/08/27 01:37:05;;;;;;;3.60;3.05;;;23.40;86.40;;;;;;5023427;28;20029;-64
2022/08/27 01:39:35;;;;;;;3.05;2.78;;;23.40;86.40;;;;;;5041502;28;20098;-64
2022/08/27 01:42:05;;;;;;;5.28;3.13;;;23.40;86.30;;;;;;5041068;28;20037;-64
2022/08/27 01:44:41;;;;;;;4.85;2.85;;;23.30;86.20;;;;;;5039737;28;20421;-64
2022/08/27 01:47:07;;;;;;;5.45;2.97;;;23.40;86.30;;;;;;5040881;28;20029;-63
2022/08/27 01:49:32;;;;;;;3.55;2.78;;;23.40;86.40;;;;;;5042827;28;20041;-64
2022/08/27 01:51:58;;;;;;;3.55;2.60;;;23.30;86.50;;;;;;5043777;28;20036;-64
2022/08/27 01:54:23;;;;;;;4.40;2.60;;;23.30;86.50;;;;;;5038909;28;20082;-64
2022/08/27 01:56:49;;;;;;;3.10;2.90;;;23.30;86.60;;;;;;5044102;28;20287;-64
2022/08/27 01:59:14;;;;;;;5.07;4.13;;;23.30;86.60;;;;;;5042605;28;20029;-64
2022/08/27 02:01:40;;;;;;;6.78;5.53;;;23.30;86.70;;;;;;5044104;28;20387;-64
2022/08/27 02:04:05;;;;;;;6.60;3.40;;;23.30;86.70;;;;;;5040005;28;20052;-64
2022/08/27 02:06:31;;;;;;;3.40;3.10;;;23.30;86.50;;;;;;5041157;28;20032;-64
2022/08/27 02:08:56;;;;;;;3.85;3.42;;;23.30;86.30;;;;;;5040254;28;20141;-64
2022/08/27 02:11:22;;;;;;;3.45;3.13;;;23.30;86.50;;;;;;5022103;28;20029;-64
2022/08/27 02:13:47;;;;;;;3.65;3.15;;;23.20;86.40;;;;;;5041756;28;20493;-65
2022/08/27 02:16:13;;;;;;;5.00;3.35;;;23.20;86.40;;;;;;5041700;28;20472;-64
2022/08/27 02:18:38;;;;;;;6.00;3.30;;;23.20;86.50;;;;;;5025517;28;20037;-64
2022/08/27 02:21:04;;;;;;;3.78;3.30;;;23.20;86.70;;;;;;5044551;28;20029;-64
2022/08/27 02:23:30;;;;;;;5.10;3.70;;;23.20;86.80;;;;;;5039586;28;20043;-64
2022/08/27 02:25:55;;;;;;;17.42;3.50;;;23.20;86.90;;;;;;5042516;28;20029;-64
2022/08/27 02:28:21;;;;;;;11.52;3.60;;;23.20;86.90;;;;;;5040742;28;20036;-64
2022/08/27 02:30:46;;;;;;;6.38;3.25;;;23.20;87.30;;;;;;5038095;28;20053;-64
2022/08/27 02:33:12;;;;;;;4.50;3.22;;;23.10;87.30;;;;;;5040440;28;20028;-64
2022/08/27 02:35:39;;;;;;;3.20;2.90;;;23.20;87.40;;;;;;5024531;28;20017;-64
2022/08/27 02:38:05;;;;;;;7.72;3.45;;;23.10;87.10;;;;;;5037248;28;20033;-65
2022/08/27 02:40:31;;;;;;;5.22;3.25;;;23.10;87.00;;;;;;5035464;28;20507;-64
2022/08/27 02:42:56;;;;;;;3.75;3.10;;;23.10;87.10;;;;;;5041400;28;20037;-64
2022/08/27 02:45:22;;;;;;;4.57;3.28;;;23.10;87.10;;;;;;5038900;28;20029;-64
2022/08/27 02:47:47;;;;;;;5.47;3.42;;;23.10;87.10;;;;;;5020065;28;20029;-65
2022/08/27 02:50:13;;;;;;;4.25;3.13;;;23.10;87.10;;;;;;5040339;28;20039;-64
2022/08/27 02:52:39;;;;;;;4.35;2.90;;;23.10;87.10;;;;;;5024658;28;20024;-65
2022/08/27 02:55:05;;;;;;;4.55;3.13;;;23.10;87.20;;;;;;5007123;28;20040;-64
2022/08/27 02:57:30;;;;;;;3.47;3.08;;;23.10;87.20;;;;;;5003347;28;20033;-64
2022/08/27 02:59:56;;;;;;;4.07;3.63;;;23.10;87.20;;;;;;5035445;28;20025;-64
2022/08/27 03:02:21;;;;;;;4.85;3.38;;;23.10;87.20;;;;;;5040118;28;20040;-64
2022/08/27 03:04:47;;;;;;;4.97;3.50;;;23.00;87.10;;;;;;5036230;28;20069;-64
2022/08/27 03:07:12;;;;;;;3.55;3.25;;;23.00;87.10;;;;;;5024062;28;20181;-64
2022/08/27 03:09:39;;;;;;;4.65;3.20;;;23.00;87.10;;;;;;5038332;28;20033;-64
2022/08/27 03:12:04;;;;;;;3.40;3.10;;;23.00;87.20;;;;;;5002891;28;20041;-64
2022/08/27 03:14:30;;;;;;;5.38;3.25;;;23.00;87.30;;;;;;5038292;28;20021;-64
2022/08/27 03:18:16;;;;;;;3.70;3.40;;;23.00;87.40;;;;;;5022928;28;20039;-64
2022/08/27 03:19:41;;;;;;;4.75;3.10;;;23.00;87.50;;;;;;5032561;28;20033;-63
2022/08/27 03:22:07;;;;;;;3.92;2.80;;;23.00;87.60;;;;;;5038805;28;20025;-64
2022/08/27 03:24:33;;;;;;;3.95;3.10;;;23.00;87.60;;;;;;5036329;28;20409;-64
2022/08/27 03:26:58;;;;;;;4.10;3.10;;;22.90;87.60;;;;;;5038316;28;20465;-64
2022/08/27 03:29:24;;;;;;;3.85;3.22;;;22.90;87.70;;;;;;5038244;28;20033;-65
2022/08/27 03:31:49;;;;;;;5.38;3.00;;;23.00;87.70;;;;;;5039893;28;20036;-64
2022/08/27 03:34:15;;;;;;;3.25;2.50;;;22.90;87.50;;;;;;5026982;28;20090;-64
2022/08/27 03:36:40;;;;;;;3.50;3.20;;;22.90;87.60;;;;;;5037012;28;20719;-64
2022/08/27 03:39:06;;;;;;;8.25;3.60;;;22.90;87.90;;;;;;5039531;28;20060;-64
2022/08/27 03:41:31;;;;;;;8.18;3.92;;;22.90;87.90;;;;;;5044231;28;20053;-64
2022/08/27 03:43:58;;;;;;;8.45;4.45;;;22.90;87.90;;;;;;5041203;28;20049;-64
2022/08/27 03:46:26;;;;;;;12.75;5.63;;;22.90;88.00;;;;;;5039598;28;20150;-64
2022/08/27 03:48:52;;;;;;;13.35;5.30;;;22.90;88.10;;;;;;5042281;28;20090;-64
2022/08/27 03:51:17;;;;;;;9.70;4.60;;;22.90;88.20;;;;;;5043360;28;20037;-65
2022/08/27 03:53:43;;;;;;;6.70;4.13;;;22.90;88.10;;;;;;5042962;28;20401;-65
2022/08/27 03:56:09;;;;;;;11.48;4.40;;;22.80;88.20;;;;;;5045522;28;20040;-64
2022/08/27 03:58:34;;;;;;;9.02;3.97;;;22.90;88.30;;;;;;5038824;28;20375;-64
2022/08/27 04:01:00;;;;;;;8.40;3.60;;;22.90;88.40;;;;;;5021123;28;20207;-64
2022/08/27 04:03:26;;;;;;;6.38;3.70;;;22.80;88.30;;;;;;5042324;28;20271;-64
2022/08/27 04:05:52;;;;;;;7.63;3.25;;;22.80;88.40;;;;;;5026190;28;20025;-68
2022/08/27 04:08:18;;;;;;;8.45;4.05;;;22.80;88.40;;;;;;5026106;28;20087;-64
2022/08/27 04:10:43;;;;;;;4.63;3.67;;;22.90;88.10;;;;;;5027482;28;20388;-64
2022/08/27 04:13:09;;;;;;;8.15;3.78;;;22.80;88.10;;;;;;5046118;28;20464;-64
2022/08/27 04:15:34;;;;;;;7.32;3.55;;;22.90;88.10;;;;;;5025852;28;20041;-64
2022/08/27 04:18:01;;;;;;;7.20;3.53;;;22.90;88.10;;;;;;5036826;28;20060;-64
2022/08/27 04:20:27;;;;;;;8.15;3.60;;;22.80;88.10;;;;;;5039836;28;20026;-64
2022/08/27 04:22:52;;;;;;;4.78;3.20;;;22.80;88.20;;;;;;5041320;28;20032;-64
2022/08/27 04:25:19;;;;;;;3.00;2.75;;;22.80;88.40;;;;;;5041528;28;20025;-64
2022/08/27 04:27:47;;;;;;;4.53;3.25;;;22.80;88.60;;;;;;5024954;28;20182;-64
2022/08/27 04:30:14;;;;;;;4.30;3.08;;;22.80;88.50;;;;;;5042648;28;20427;-64
2022/08/27 04:32:40;;;;;;;4.68;3.20;;;22.80;88.60;;;;;;5044348;28;20024;-64
2022/08/27 04:35:06;;;;;;;6.88;3.50;;;22.70;88.60;;;;;;5037438;28;20421;-64
2022/08/27 04:37:32;;;;;;;6.45;2.90;;;22.80;88.70;;;;;;5043810;28;20029;-64
2022/08/27 04:39:57;;;;;;;4.70;3.22;;;22.70;88.70;;;;;;5043695;28;20040;-64
2022/08/27 04:42:23;;;;;;;4.13;3.00;;;22.70;88.50;;;;;;5041918;28;20551;-64
2022/08/27 04:44:49;;;;;;;3.28;2.95;;;22.80;88.50;;;;;;5038178;28;20044;-63
2022/08/27 04:47:15;;;;;;;12.95;3.55;;;22.80;88.50;;;;;;5040841;28;20067;-64
2022/08/27 04:49:41;;;;;;;25.50;5.88;;;22.70;88.60;;;;;;5036196;28;20299;-64
2022/08/27 04:52:07;;;;;;;18.48;4.18;;;22.90;88.80;;;;;;5041851;28;20087;-64
2022/08/27 04:54:32;;;;;;;28.58;5.43;;;22.70;88.70;;;;;;5041180;28;20104;-64
2022/08/27 04:56:58;;;;;;;25.77;4.75;;;22.70;88.80;;;;;;5042410;28;20021;-64
2022/08/27 04:59:23;;;;;;;27.65;5.07;;;22.70;88.70;;;;;;5024227;28;20037;-64
2022/08/27 05:01:49;;;;;;;18.48;4.57;;;22.70;88.80;;;;;;5037219;28;20037;-64
2022/08/27 05:04:15;;;;;;;13.73;4.32;;;22.70;88.90;;;;;;5027383;28;20024;-64
2022/08/27 05:06:44;;;;;;;16.83;4.78;;;22.70;88.60;;;;;;5023706;28;20029;-64
2022/08/27 05:09:09;;;;;;;19.55;4.25;;;22.70;88.60;;;;;;5039080;28;20039;-64
2022/08/27 05:11:35;;;;;;;19.20;4.03;;;22.70;88.60;;;;;;5042199;28;20828;-64
2022/08/27 05:14:04;;;;;;;17.15;4.55;;;22.70;88.70;;;;;;5041184;28;20079;-64
2022/08/27 05:16:30;;;;;;;14.75;3.65;;;22.70;88.80;;;;;;5040524;28;20408;-64
2022/08/27 05:18:57;;;;;;;11.88;3.47;;;22.70;88.70;;;;;;5021370;28;20028;-63
2022/08/27 05:21:26;;;;;;;17.00;4.28;;;22.70;88.80;;;;;;5040665;28;20056;-64
2022/08/27 05:23:53;;;;;;;9.23;3.63;;;22.70;88.80;;;;;;5024155;28;20403;-63
2022/08/27 05:26:18;;;;;;;11.45;3.67;;;22.70;88.80;;;;;;5039879;28;20035;-63
2022/08/27 05:28:44;;;;;;;20.90;4.50;;;22.60;88.80;;;;;;5023525;28;20112;-64
2022/08/27 05:31:11;;;;;;;17.95;3.60;;;22.70;88.80;;;;;;5041580;28;20469;-64
2022/08/27 05:33:37;;;;;;;10.23;3.90;;;22.70;88.90;;;;;;5024278;28;20388;-64
2022/08/27 05:36:03;;;;;;;17.15;3.80;;;22.70;89.00;;;;;;5024299;28;20511;-64
2022/08/27 05:38:29;;;;;;;11.65;3.90;;;22.70;89.00;;;;;;5019568;28;20041;-64
2022/08/27 05:41:24;;;;;;;8.40;3.30;;;22.70;89.00;;;;;;5043677;28;20119;-64
2022/08/27 05:43:49;;;;;;;10.93;3.63;;;22.70;89.10;;;;;;5041337;28;20056;-64
2022/08/27 05:46:16;;;;;;;12.38;3.25;;;22.70;89.30;;;;;;5023215;28;20543;-64
2022/08/27 05:48:42;;;;;;;10.75;3.97;;;22.60;89.30;;;;;;5023444;28;20053;-65
2022/08/27 05:51:14;;;;;;;8.95;3.90;;;22.60;89.40;;;;;;5039817;28;20175;-64
2022/08/27 05:53:40;;;;;;;13.85;3.80;;;22.60;89.40;;;;;;5036977;28;20041;-64
2022/08/27 05:56:17;;;;;;;10.70;3.75;;;22.60;89.40;;;;;;5039711;28;20070;-64
2022/08/27 06:01:32;;;;;;;5.10;3.22;;;22.60;89.40;;;;;;5040498;28;20144;-64
2022/08/27 06:03:57;;;;;;;14.50;3.75;;;22.60;89.40;;;;;;5038851;28;20061;-64
2022/08/27 06:06:23;;;;;;;11.52;3.67;;;22.60;89.50;;;;;;5040873;28;20028;-64
2022/08/27 06:08:49;;;;;;;8.88;3.47;;;22.60;89.50;;;;;;5038717;28;20085;-64
2022/08/27 06:11:15;;;;;;;8.32;3.50;;;22.60;89.70;;;;;;5036800;28;20450;-64
2022/08/27 06:13:41;;;;;;;9.18;3.25;;;22.60;89.70;;;;;;5017882;28;20029;-64
2022/08/27 06:16:08;;;;;;;11.85;3.92;;;22.60;89.60;;;;;;5007431;28;20120;-65
2022/08/27 06:18:34;;;;;;;8.95;3.42;;;22.60;89.70;;;;;;5037387;28;20456;-64
2022/08/27 06:20:59;;;;;;;5.97;3.30;;;22.60;89.80;;;;;;5025835;28;20087;-64
2022/08/27 06:23:25;;;;;;;9.93;3.50;;;22.60;89.80;;;;;;5039732;28;20255;-64
2022/08/27 06:25:51;;;;;;;5.88;3.03;;;22.60;89.90;;;;;;5038868;28;20037;-64
2022/08/27 06:28:20;;;;;;;9.60;3.85;;;22.60;89.80;;;;;;5001557;28;20392;-64
2022/08/27 06:30:45;;;;;;;6.80;3.40;;;22.60;89.90;;;;;;5039829;28;20033;-65
2022/08/27 06:33:11;;;;;;;5.30;3.22;;;22.60;90.00;;;;;;5040208;28;20028;-65
2022/08/27 06:35:36;;;;;;;6.10;3.47;;;22.60;90.00;;;;;;5035248;28;20037;-65
2022/08/27 06:38:02;;;;;;;8.65;3.58;;;22.60;90.00;;;;;;5032165;28;20023;-64
2022/08/27 06:40:27;;;;;;;8.15;3.45;;;22.60;90.10;;;;;;5039316;28;20039;-64
2022/08/27 06:42:53;;;;;;;5.38;3.38;;;22.70;90.20;;;;;;5041261;28;20041;-64
2022/08/27 06:45:19;;;;;;;10.13;3.95;;;22.60;90.20;;;;;;5041243;28;20025;-64
2022/08/27 06:47:44;;;;;;;7.88;3.50;;;22.60;90.30;;;;;;5035443;28;20049;-64
2022/08/27 06:50:10;;;;;;;7.65;3.50;;;22.60;90.30;;;;;;5038499;28;20033;-64
2022/08/27 06:52:35;;;;;;;10.10;3.97;;;22.60;90.10;;;;;;5039630;28;20037;-65
2022/08/27 06:55:01;;;;;;;4.68;3.25;;;22.60;90.20;;;;;;5037013;28;20311;-64
2022/08/27 06:57:27;;;;;;;5.45;3.58;;;22.60;90.30;;;;;;5040387;28;20033;-64
2022/08/27 06:59:52;;;;;;;7.68;3.30;;;22.60;90.40;;;;;;5019271;28;20028;-65
2022/08/27 07:02:18;;;;;;;10.18;3.25;;;22.60;90.40;;;;;;5039491;28;20122;-64
2022/08/27 07:04:44;;;;;;;5.93;3.67;;;22.60;90.40;;;;;;5038247;28;20033;-64
2022/08/27 07:07:10;;;;;;;7.05;3.70;;;22.60;90.50;;;;;;5042498;28;20501;-65
2022/08/27 07:09:35;;;;;;;3.83;2.90;;;22.60;90.60;;;;;;5042504;28;20451;-64
2022/08/27 07:12:01;;;;;;;5.75;3.03;;;22.60;90.70;;;;;;5042905;28;20114;-64
2022/08/27 07:14:27;;;;;;;5.35;3.30;;;22.60;90.70;;;;;;5045431;28;20062;-64
2022/08/27 07:16:52;;;;;;;6.55;3.38;;;22.60;90.70;;;;;;5008766;28;20037;-64
2022/08/27 07:19:18;;;;;;;6.25;3.03;;;22.50;90.60;;;;;;5043800;28;20028;-64
2022/08/27 07:21:43;;;;;;;7.68;3.17;;;22.60;90.60;;;;;;5025291;28;20044;-64
2022/08/27 07:24:09;;;;;;;3.22;2.92;;;22.60;90.60;;;;;;5043699;28;20041;-64
2022/08/27 07:26:37;;;;;;;4.50;3.58;;;22.60;90.70;;;;;;5043178;28;20067;-64
2022/08/27 07:29:04;;;;;;;4.57;3.10;;;22.60;90.70;;;;;;5040978;28;20056;-64
2022/08/27 07:31:30;;;;;;;5.68;3.25;;;22.60;90.80;;;;;;5023674;28;20017;-64
2022/08/27 07:33:56;;;;;;;5.78;3.38;;;22.60;90.80;;;;;;5032798;28;20048;-64
2022/08/27 07:36:22;;;;;;;9.52;3.17;;;22.60;90.80;;;;;;5043100;28;20480;-62
2022/08/27 07:38:48;;;;;;;4.88;3.78;;;22.60;90.80;;;;;;5023503;28;20021;-64
2022/08/27 07:41:13;;;;;;;3.85;3.33;;;22.60;90.80;;;;;;5035113;28;20044;-64
2022/08/27 07:46:23;;;;;;;6.22;3.38;;;22.60;90.80;;;;;;5040690;28;20091;-65
2022/08/27 07:48:49;;;;;;;7.45;3.13;;;22.60;90.80;;;;;;5042159;28;20037;-64
2022/08/27 07:51:16;;;;;;;6.88;3.30;;;22.60;90.90;;;;;;5009481;28;20029;-65
2022/08/27 07:53:43;;;;;;;6.28;3.42;;;22.60;90.80;;;;;;5039638;28;20025;-64
2022/08/27 07:56:09;;;;;;;7.25;3.67;;;22.60;90.90;;;;;;5009096;28;20866;-64
2022/08/27 07:58:34;;;;;;;5.20;3.13;;;22.60;90.90;;;;;;5021124;28;20033;-64
2022/08/27 08:01:00;;;;;;;4.55;3.33;;;22.60;90.90;;;;;;5032799;28;20472;-65
2022/08/27 08:03:25;;;;;;;6.50;3.50;;;22.70;90.80;;;;;;5012275;28;20619;-64
2022/08/27 08:05:54;;;;;;;8.68;4.20;;;22.70;90.90;;;;;;5013970;28;20051;-65
2022/08/27 08:08:20;;;;;;;8.68;4.43;;;22.70;91.20;;;;;;5024467;28;20037;-64
2022/08/27 08:10:47;;;;;;;9.73;4.40;;;22.70;91.30;;;;;;5005954;28;20037;-64
2022/08/27 08:13:13;;;;;;;25.08;5.68;;;22.60;91.40;;;;;;5026394;28;20140;-64
2022/08/27 08:15:38;;;;;;;27.67;5.25;;;22.60;91.70;;;;;;5029934;28;20032;-64
2022/08/27 08:18:04;;;;;;;28.70;5.22;;;22.60;91.90;;;;;;5033431;28;20033;-64
2022/08/27 08:20:30;;;;;;;37.83;6.90;;;22.70;91.70;;;;;;5016862;28;20037;-64
2022/08/27 08:22:55;;;;;;;39.80;6.53;;;22.60;91.80;;;;;;5031719;28;20034;-65
2022/08/27 08:25:21;;;;;;;50.70;6.82;;;22.60;91.80;;;;;;5023340;28;20051;-65
2022/08/27 08:27:47;;;;;;;42.45;6.80;;;22.70;91.90;;;;;;5023020;28;20516;-64
2022/08/27 08:30:12;;;;;;;44.80;7.00;;;22.70;92.00;;;;;;5029125;28;20028;-65
2022/08/27 08:32:38;;;;;;;79.03;11.00;;;22.70;91.90;;;;;;5013151;28;20033;-64
2022/08/27 08:35:04;;;;;;;80.30;10.50;;;22.70;91.90;;;;;;5026732;28;20036;-64
2022/08/27 08:37:29;;;;;;;72.00;9.98;;;22.80;92.00;;;;;;5032276;28;20059;-64
2022/08/27 08:39:55;;;;;;;75.40;10.50;;;22.80;92.10;;;;;;5030873;28;20208;-64
2022/08/27 08:42:31;;;;;;;65.28;11.07;;;22.80;92.10;;;;;;5021170;28;20668;-64
2022/08/27 08:44:58;;;;;;;99.40;12.18;;;22.80;92.10;;;;;;5030133;28;20562;-63
2022/08/27 08:47:26;;;;;;;89.38;13.73;;;22.90;92.30;;;;;;5031145;28;20213;-63
2022/08/27 08:50:05;;;;;;;105.43;11.50;;;22.90;92.20;;;;;;5016029;28;20013;-64
2022/08/27 08:52:33;;;;;;;114.38;13.50;;;22.90;92.20;;;;;;5030162;28;20556;-63
2022/08/27 08:55:34;;;;;;;106.13;14.05;;;22.90;92.20;;;;;;5032972;28;20041;-63
2022/08/27 08:58:14;;;;;;;181.40;17.02;;;23.00;92.20;;;;;;5014181;28;20034;-63
2022/08/27 09:00:40;;;;;;;116.82;13.55;;;23.10;92.30;;;;;;5022193;28;20029;-64
2022/08/27 09:03:06;;;;;;;112.05;14.23;;;23.00;92.20;;;;;;5017330;28;20029;-64
2022/08/27 09:05:32;;;;;;;125.40;15.70;;;23.00;92.30;;;;;;5024446;28;20489;-63
2022/08/27 09:08:10;;;;;;;114.88;13.30;;;23.10;92.30;;;;;;5000557;28;20974;-63
2022/08/27 09:10:57;;;;;;;144.00;16.70;;;23.10;92.20;;;;;;5030751;28;20779;-64
2022/08/27 09:13:32;;;;;;;131.60;14.90;;;23.10;92.40;;;;;;5022458;28;20059;-63
2022/08/27 09:16:00;;;;;;;100.30;13.82;;;23.10;92.30;;;;;;5001068;28;20088;-63
2022/08/27 09:18:26;;;;;;;88.65;13.45;;;23.10;92.30;;;;;;5026902;28;20056;-63
2022/08/27 09:20:57;;;;;;;131.48;17.02;;;23.10;92.30;;;;;;5024837;28;20029;-63
2022/08/27 09:23:27;;;;;;;135.25;13.40;;;23.20;92.40;;;;;;5003332;28;20029;-63
2022/08/27 09:25:53;;;;;;;118.47;14.45;;;23.20;92.30;;;;;;5022777;28;20025;-63
2022/08/27 09:31:15;;;;;;;172.05;20.73;;;23.20;92.20;;;;;;5024275;28;20091;-63
2022/08/27 09:33:41;;;;;;;135.52;17.60;;;23.20;92.10;;;;;;5024105;28;20038;-64
2022/08/27 09:36:09;;;;;;;178.40;16.65;;;23.20;92.00;;;;;;5017335;28;20025;-63
2022/08/27 09:38:35;;;;;;;83.22;11.90;;;23.20;91.80;;;;;;5025043;28;20198;-63
2022/08/27 09:41:05;;;;;;;128.60;17.00;;;23.30;91.50;;;;;;5030766;28;20180;-63
2022/08/27 09:43:30;;;;;;;128.05;15.65;;;23.30;91.40;;;;;;5024006;28;20567;-64
2022/08/27 09:46:19;;;;;;;101.97;14.57;;;23.30;91.20;;;;;;5013004;28;20025;-64
2022/08/27 09:48:44;;;;;;;136.38;15.45;;;23.40;91.20;;;;;;5007524;28;20044;-64
2022/08/27 09:51:12;;;;;;;134.68;17.10;;;23.30;91.30;;;;;;5029814;28;20028;-64
2022/08/27 09:54:05;;;;;;;102.15;12.13;;;23.40;91.20;;;;;;5010078;28;20035;-64
2022/08/27 09:56:38;;;;;;;158.35;18.85;;;23.40;91.10;;;;;;5021444;28;20530;-63
2022/08/27 09:59:11;;;;;;;156.30;16.63;;;23.40;90.80;;;;;;5025326;28;20029;-63
2022/08/27 10:02:13;;;;;;;147.93;16.52;;;23.40;90.80;;;;;;4997452;28;20145;-63
2022/08/27 10:04:43;;;;;;;112.13;13.75;;;23.40;91.00;;;;;;5018723;28;20781;-63
2022/08/27 10:07:32;;;;;;;130.15;15.75;;;23.40;91.00;;;;;;5030129;28;20116;-63
2022/08/27 10:10:38;;;;;;;131.45;15.80;;;23.40;91.00;;;;;;5025713;28;20036;-64
2022/08/27 10:13:07;;;;;;;115.85;12.95;;;23.40;91.00;;;;;;5026591;28;20086;-63
2022/08/27 10:15:36;;;;;;;109.00;12.60;;;23.40;91.10;;;;;;5024564;28;20153;-63
2022/08/27 10:18:13;;;;;;;113.43;13.43;;;23.40;91.10;;;;;;5025629;28;20156;-63
2022/08/27 10:21:01;;;;;;;163.38;18.20;;;23.40;91.10;;;;;;5007290;28;20546;-63
2022/08/27 10:23:48;;;;;;;106.38;12.45;;;23.50;91.20;;;;;;5002987;28;20044;-63
2022/08/27 10:26:20;;;;;;;103.22;12.93;;;23.50;91.00;;;;;;5024137;28;20044;-64
2022/08/27 10:28:49;;;;;;;86.07;10.32;;;23.50;90.80;;;;;;4995237;28;20044;-64
2022/08/27 10:31:22;;;;;;;81.22;9.75;;;23.60;91.00;;;;;;5020376;28;20041;-64
2022/08/27 10:33:59;;;;;;;73.75;9.73;;;23.70;91.00;;;;;;5019842;28;20032;-63
2022/08/27 10:36:34;;;;;;;45.05;8.25;;;23.60;90.90;;;;;;5024863;28;20033;-64
2022/08/27 10:39:22;;;;;;;60.30;9.68;;;23.60;90.70;;;;;;5009279;28;20071;-63
2022/08/27 10:42:07;;;;;;;66.97;9.23;;;23.60;90.80;;;;;;5028336;28;20112;-63
2022/08/27 10:45:03;;;;;;;67.32;9.45;;;23.60;90.80;;;;;;5013426;28;20432;-63
2022/08/27 10:47:37;;;;;;;68.67;10.67;;;23.60;91.00;;;;;;5021265;28;20055;-63
2022/08/27 10:50:34;;;;;;;86.22;10.75;;;23.60;91.00;;;;;;5025144;28;20038;-64
2022/08/27 10:53:09;;;;;;;62.83;9.73;;;23.70;90.70;;;;;;5027029;28;20437;-65
2022/08/27 10:55:38;;;;;;;68.82;9.77;;;23.70;90.60;;;;;;5023283;28;20041;-64
2022/08/27 10:58:31;;;;;;;75.10;9.38;;;23.80;90.40;;;;;;5010435;28;20056;-64
2022/08/27 11:01:15;;;;;;;69.25;10.25;;;23.80;90.30;;;;;;5025952;28;20441;-64
2022/08/27 11:03:47;;;;;;;74.35;10.32;;;23.80;90.20;;;;;;5012830;28;20189;-64
2022/08/27 11:06:26;;;;;;;83.63;9.63;;;23.90;90.10;;;;;;5016008;28;20037;-64
2022/08/27 11:09:10;;;;;;;62.10;9.50;;;24.00;90.10;;;;;;5015555;28;20017;-63
2022/08/27 11:11:42;;;;;;;58.55;8.10;;;24.00;90.00;;;;;;5003090;28;20091;-63
2022/08/27 11:14:19;;;;;;;73.05;9.38;;;24.10;90.00;;;;;;5008506;28;20467;-64
2022/08/27 11:16:47;;;;;;;75.50;8.82;;;24.10;89.20;;;;;;4997925;28;20623;-63
2022/08/27 11:19:53;;;;;;;81.13;9.30;;;24.10;89.40;;;;;;5027334;28;20117;-63
2022/08/27 11:22:32;;;;;;;80.60;9.23;;;24.20;88.50;;;;;;4987748;28;20204;-64
2022/08/27 11:25:10;;;;;;;68.88;9.98;;;24.20;88.60;;;;;;5001789;28;20033;-65
2022/08/27 11:27:36;;;;;;;70.72;9.07;;;24.30;87.90;;;;;;5019569;28;20095;-63
2022/08/27 11:30:29;;;;;;;78.63;10.10;;;24.40;87.80;;;;;;5022610;28;20025;-64
2022/08/27 11:33:09;;;;;;;79.93;10.55;;;24.40;87.80;;;;;;5010415;28;20540;-64
2022/08/27 11:36:14;;;;;;;102.00;13.57;;;24.40;87.60;;;;;;5007200;28;20112;-63
2022/08/27 11:38:53;;;;;;;82.10;10.93;;;24.30;86.90;;;;;;4988304;28;20030;-64
2022/08/27 11:41:40;;;;;;;81.57;11.40;;;24.50;87.00;;;;;;5026965;28;20025;-63
2022/08/27 11:44:06;;;;;;;79.63;12.20;;;24.60;86.70;;;;;;5021972;28;20041;-64
2022/08/27 11:47:08;;;;;;;111.47;12.65;;;24.50;86.50;;;;;;5017972;28;20056;-64
2022/08/27 11:49:50;;;;;;;63.47;10.27;;;24.60;86.30;;;;;;5016657;28;20052;-63
2022/08/27 11:52:28;;;;;;;79.90;10.43;;;24.70;85.80;;;;;;5024768;28;20037;-64
2022/08/27 11:55:19;;;;;;;66.53;9.70;;;24.70;85.50;;;;;;5012640;28;20071;-64
2022/08/27 11:57:45;;;;;;;81.35;10.32;;;24.70;85.30;;;;;;5024409;28;20037;-63
2022/08/27 12:00:28;;;;;;;61.63;10.38;;;24.70;85.10;;;;;;5030993;28;20102;-64
2022/08/27 12:03:01;;;;;;;55.22;8.82;;;24.80;84.90;;;;;;5023239;28;21326;-64
2022/08/27 12:05:34;;;;;;;53.08;8.30;;;24.80;84.70;;;;;;5011113;28;20079;-64
2022/08/27 12:08:28;;;;;;;54.72;9.07;;;24.80;83.90;;;;;;5024545;28;20166;-64
2022/08/27 12:11:12;;;;;;;57.60;8.60;;;24.80;83.40;;;;;;5027615;28;20114;-64
2022/08/27 12:13:48;;;;;;;50.65;7.95;;;24.90;82.60;;;;;;5029273;28;20390;-64
2022/08/27 12:16:35;;;;;;;48.25;8.57;;;24.90;82.10;;;;;;5024840;28;20039;-64
2022/08/27 12:19:09;;;;;;;41.35;8.68;;;25.00;82.20;;;;;;5015201;28;20465;-64
2022/08/27 12:21:37;;;;;;;39.00;7.70;;;25.00;81.80;;;;;;5024074;28;20052;-64
2022/08/27 12:24:23;;;;;;;49.75;8.02;;;25.10;81.20;;;;;;5028828;28;20409;-64
2022/08/27 12:26:56;;;;;;;59.95;8.13;;;25.10;80.90;;;;;;5008927;28;21370;-63
2022/08/27 12:29:24;;;;;;;52.30;9.30;;;25.20;80.90;;;;;;5029136;28;20036;-64
2022/08/27 12:31:53;;;;;;;60.42;9.02;;;25.30;80.30;;;;;;5029051;28;20514;-63
2022/08/27 12:34:23;;;;;;;61.00;9.55;;;25.40;80.40;;;;;;5020628;28;20033;-63
2022/08/27 12:36:51;;;;;;;49.17;9.13;;;25.40;79.90;;;;;;5015412;28;20572;-63
2022/08/27 12:39:18;;;;;;;60.90;9.05;;;25.50;79.70;;;;;;5033018;28;20041;-64
2022/08/27 12:41:45;;;;;;;63.88;10.43;;;25.60;79.40;;;;;;5027419;28;20516;-64
2022/08/27 12:44:28;;;;;;;57.67;9.85;;;25.60;79.20;;;;;;5025402;28;20448;-63
2022/08/27 12:47:00;;;;;;;64.05;10.23;;;25.70;79.20;;;;;;5025365;28;20045;-63
2022/08/27 12:49:34;;;;;;;58.67;10.07;;;25.70;79.10;;;;;;5020758;28;20037;-64
2022/08/27 12:52:00;;;;;;;72.15;10.77;;;25.70;79.00;;;;;;4994118;28;20021;-63
2022/08/27 12:54:45;;;;;;;56.55;10.43;;;25.80;79.00;;;;;;5026113;28;20109;-64
2022/08/27 12:57:22;;;;;;;64.50;10.40;;;25.90;79.10;;;;;;5024906;28;21571;-64
2022/08/27 13:00:13;;;;;;;66.97;10.15;;;25.90;79.00;;;;;;5009395;28;20732;-63